sensor_id;sensor_type;location;lat;lon;timestamp;pressure;altitude;pressure_sealevel;temperature
77414;BMP280;66486;49.992;19.164;2023-02-01T00:00:20;98305.94;;;2.98
77414;BMP280;66486;49.992;19.164;2023-02-01T00:03:06;98296.41;;;2.90
77414;BMP280;66486;49.992;19.164;2023-02-01T00:05:34;98297.22;;;3.01
77414;BMP280;66486;49.992;19.164;2023-02-01T00:08:00;98280.50;;;2.97
77414;BMP280;66486;49.992;19.164;2023-02-01T00:10:26;98283.59;;;3.06
77414;BMP280;66486;49.992;19.164;2023-02-01T00:12:52;98276.38;;;3.06
77414;BMP280;66486;49.992;19.164;2023-02-01T00:15:18;98278.97;;;2.96
77414;BMP280;66486;49.992;19.164;2023-02-01T00:17:44;98277.88;;;3.00
77414;BMP280;66486;49.992;19.164;2023-02-01T00:20:11;98270.66;;;3.04
77414;BMP280;66486;49.992;19.164;2023-02-01T00:22:37;98262.66;;;2.97
77414;BMP280;66486;49.992;19.164;2023-02-01T00:25:03;98263.47;;;3.05
77414;BMP280;66486;49.992;19.164;2023-02-01T00:27:29;98265.28;;;2.94
77414;BMP280;66486;49.992;19.164;2023-02-01T00:29:55;98263.78;;;2.89
77414;BMP280;66486;49.992;19.164;2023-02-01T00:32:21;98258.47;;;2.93
77414;BMP280;66486;49.992;19.164;2023-02-01T00:34:47;98257.34;;;2.90
77414;BMP280;66486;49.992;19.164;2023-02-01T00:37:13;98254.31;;;2.92
77414;BMP280;66486;49.992;19.164;2023-02-01T00:39:39;98252.75;;;2.87
77414;BMP280;66486;49.992;19.164;2023-02-01T00:42:05;98258.09;;;2.94
77414;BMP280;66486;49.992;19.164;2023-02-01T00:44:31;98255.06;;;2.89
77414;BMP280;66486;49.992;19.164;2023-02-01T00:47:00;98259.22;;;2.93
77414;BMP280;66486;49.992;19.164;2023-02-01T00:49:28;98238.03;;;2.97
77414;BMP280;66486;49.992;19.164;2023-02-01T00:51:54;98251.63;;;2.88
77414;BMP280;66486;49.992;19.164;2023-02-01T00:54:20;98260.75;;;2.91
77414;BMP280;66486;49.992;19.164;2023-02-01T00:56:46;98264.94;;;2.92
77414;BMP280;66486;49.992;19.164;2023-02-01T00:59:13;98263.38;;;2.87
77414;BMP280;66486;49.992;19.164;2023-02-01T01:01:39;98251.66;;;2.95
77414;BMP280;66486;49.992;19.164;2023-02-01T01:04:05;98256.63;;;3.00
77414;BMP280;66486;49.992;19.164;2023-02-01T01:06:32;98259.66;;;2.99
77414;BMP280;66486;49.992;19.164;2023-02-01T01:09:01;98252.81;;;3.01
77414;BMP280;66486;49.992;19.164;2023-02-01T01:11:29;98247.47;;;2.94
77414;BMP280;66486;49.992;19.164;2023-02-01T01:13:57;98261.16;;;2.96
77414;BMP280;66486;49.992;19.164;2023-02-01T01:16:24;98261.19;;;3.03
77414;BMP280;66486;49.992;19.164;2023-02-01T01:18:52;98258.97;;;3.16
77414;BMP280;66486;49.992;19.164;2023-02-01T01:21:19;98251.06;;;3.30
77414;BMP280;66486;49.992;19.164;2023-02-01T01:23:46;98259.44;;;3.36
77414;BMP280;66486;49.992;19.164;2023-02-01T01:26:20;98268.94;;;3.33
77414;BMP280;66486;49.992;19.164;2023-02-01T01:28:46;98265.91;;;3.42
77414;BMP280;66486;49.992;19.164;2023-02-01T01:31:14;98271.63;;;3.47
77414;BMP280;66486;49.992;19.164;2023-02-01T01:33:40;98289.13;;;3.52
77414;BMP280;66486;49.992;19.164;2023-02-01T01:36:08;98303.13;;;3.49
77414;BMP280;66486;49.992;19.164;2023-02-01T01:38:40;98341.91;;;3.46
77414;BMP280;66486;49.992;19.164;2023-02-01T01:41:08;98344.91;;;3.45
77414;BMP280;66486;49.992;19.164;2023-02-01T01:43:58;98378.22;;;3.28
77414;BMP280;66486;49.992;19.164;2023-02-01T01:46:29;98381.81;;;2.95
77414;BMP280;66486;49.992;19.164;2023-02-01T01:49:04;98388.09;;;2.73
77414;BMP280;66486;49.992;19.164;2023-02-01T01:51:33;98400.06;;;2.53
77414;BMP280;66486;49.992;19.164;2023-02-01T01:54:10;98404.75;;;2.33
77414;BMP280;66486;49.992;19.164;2023-02-01T01:56:37;98403.66;;;2.01
77414;BMP280;66486;49.992;19.164;2023-02-01T01:59:04;98402.47;;;1.98
77414;BMP280;66486;49.992;19.164;2023-02-01T02:01:31;98401.19;;;1.85
77414;BMP280;66486;49.992;19.164;2023-02-01T02:03:58;98402.75;;;1.90
77414;BMP280;66486;49.992;19.164;2023-02-01T02:06:31;98391.22;;;1.75
77414;BMP280;66486;49.992;19.164;2023-02-01T02:08:59;98398.09;;;1.80
77414;BMP280;66486;49.992;19.164;2023-02-01T02:11:25;98392.47;;;1.85
77414;BMP280;66486;49.992;19.164;2023-02-01T02:13:53;98381.44;;;1.79
77414;BMP280;66486;49.992;19.164;2023-02-01T02:16:43;98384.31;;;2.00
77414;BMP280;66486;49.992;19.164;2023-02-01T02:47:32;98367.69;;;2.03
77414;BMP280;66486;49.992;19.164;2023-02-01T02:53:15;98361.19;;;1.97
77414;BMP280;66486;49.992;19.164;2023-02-01T02:56:03;98346.44;;;2.00
77414;BMP280;66486;49.992;19.164;2023-02-01T02:58:50;98348.22;;;1.92
77414;BMP280;66486;49.992;19.164;2023-02-01T03:01:37;98346.75;;;1.95
77414;BMP280;66486;49.992;19.164;2023-02-01T03:04:22;98351.66;;;1.93
77414;BMP280;66486;49.992;19.164;2023-02-01T03:06:49;98338.91;;;2.06
77414;BMP280;66486;49.992;19.164;2023-02-01T03:09:31;98339.25;;;2.00
77414;BMP280;66486;49.992;19.164;2023-02-01T03:12:02;98346.44;;;2.00
77414;BMP280;66486;49.992;19.164;2023-02-01T03:14:51;98343.38;;;1.98
77414;BMP280;66486;49.992;19.164;2023-02-01T03:17:22;98346.84;;;2.06
77414;BMP280;66486;49.992;19.164;2023-02-01T03:19:52;98349.53;;;2.09
77414;BMP280;66486;49.992;19.164;2023-02-01T03:22:24;98350.97;;;1.99
77414;BMP280;66486;49.992;19.164;2023-02-01T03:24:55;98356.72;;;2.05
77414;BMP280;66486;49.992;19.164;2023-02-01T03:27:30;98362.03;;;2.05
77414;BMP280;66486;49.992;19.164;2023-02-01T03:30:11;98364.69;;;2.05
77414;BMP280;66486;49.992;19.164;2023-02-01T03:32:44;98365.59;;;2.20
77414;BMP280;66486;49.992;19.164;2023-02-01T03:38:12;98392.97;;;2.27
77414;BMP280;66486;49.992;19.164;2023-02-01T03:40:48;98384.34;;;2.37
77414;BMP280;66486;49.992;19.164;2023-02-01T03:43:19;98384.25;;;2.27
77414;BMP280;66486;49.992;19.164;2023-02-01T03:45:53;98375.88;;;2.25
77414;BMP280;66486;49.992;19.164;2023-02-01T03:48:22;98386.09;;;2.23
77414;BMP280;66486;49.992;19.164;2023-02-01T03:50:53;98383.88;;;2.28
77414;BMP280;66486;49.992;19.164;2023-02-01T03:53:22;98379.31;;;2.29
77414;BMP280;66486;49.992;19.164;2023-02-01T03:55:50;98374.47;;;2.34
77414;BMP280;66486;49.992;19.164;2023-02-01T03:58:22;98381.47;;;2.16
77414;BMP280;66486;49.992;19.164;2023-02-01T04:00:57;98371.75;;;2.27
77414;BMP280;66486;49.992;19.164;2023-02-01T04:03:25;98387.69;;;2.27
77414;BMP280;66486;49.992;19.164;2023-02-01T04:05:53;98384.97;;;2.24
77414;BMP280;66486;49.992;19.164;2023-02-01T04:08:20;98401.66;;;2.24
77414;BMP280;66486;49.992;19.164;2023-02-01T04:10:46;98405.44;;;2.23
77414;BMP280;66486;49.992;19.164;2023-02-01T04:13:12;98409.09;;;2.48
77414;BMP280;66486;49.992;19.164;2023-02-01T04:15:39;98415.66;;;2.58
77414;BMP280;66486;49.992;19.164;2023-02-01T04:18:05;98422.00;;;2.50
77414;BMP280;66486;49.992;19.164;2023-02-01T04:20:31;98421.16;;;2.42
77414;BMP280;66486;49.992;19.164;2023-02-01T04:22:58;98427.09;;;2.32
77414;BMP280;66486;49.992;19.164;2023-02-01T04:25:24;98433.03;;;2.52
77414;BMP280;66486;49.992;19.164;2023-02-01T04:27:50;98415.25;;;2.56
77414;BMP280;66486;49.992;19.164;2023-02-01T04:30:16;98396.13;;;2.40
77414;BMP280;66486;49.992;19.164;2023-02-01T04:32:42;98397.16;;;2.32
77414;BMP280;66486;49.992;19.164;2023-02-01T04:35:08;98384.44;;;2.11
77414;BMP280;66486;49.992;19.164;2023-02-01T04:37:35;98396.09;;;2.03
77414;BMP280;66486;49.992;19.164;2023-02-01T04:40:01;98384.38;;;2.04
77414;BMP280;66486;49.992;19.164;2023-02-01T04:42:29;98389.91;;;2.25
77414;BMP280;66486;49.992;19.164;2023-02-01T04:44:55;98386.75;;;2.13
77414;BMP280;66486;49.992;19.164;2023-02-01T04:47:21;98383.94;;;2.02
77414;BMP280;66486;49.992;19.164;2023-02-01T04:49:47;98390.88;;;2.10
77414;BMP280;66486;49.992;19.164;2023-02-01T04:52:12;98391.25;;;2.09
77414;BMP280;66486;49.992;19.164;2023-02-01T04:54:39;98391.59;;;2.07
77414;BMP280;66486;49.992;19.164;2023-02-01T04:57:04;98387.41;;;2.06
77414;BMP280;66486;49.992;19.164;2023-02-01T04:59:30;98385.91;;;2.05
77414;BMP280;66486;49.992;19.164;2023-02-01T05:01:56;98376.06;;;2.09
77414;BMP280;66486;49.992;19.164;2023-02-01T05:04:22;98384.88;;;2.17
77414;BMP280;66486;49.992;19.164;2023-02-01T05:06:48;98382.69;;;2.22
77414;BMP280;66486;49.992;19.164;2023-02-01T05:09:14;98388.75;;;2.23
77414;BMP280;66486;49.992;19.164;2023-02-01T05:11:41;98382.59;;;2.15
77414;BMP280;66486;49.992;19.164;2023-02-01T05:14:26;98392.56;;;2.25
77414;BMP280;66486;49.992;19.164;2023-02-01T05:16:52;98390.75;;;2.36
77414;BMP280;66486;49.992;19.164;2023-02-01T05:19:18;98388.06;;;2.33
77414;BMP280;66486;49.992;19.164;2023-02-01T05:21:44;98386.16;;;2.30
77414;BMP280;66486;49.992;19.164;2023-02-01T05:24:10;98381.16;;;2.21
77414;BMP280;66486;49.992;19.164;2023-02-01T05:26:42;98365.25;;;2.25
77414;BMP280;66486;49.992;19.164;2023-02-01T05:29:10;98363.03;;;2.27
77414;BMP280;66486;49.992;19.164;2023-02-01T05:31:36;98367.66;;;2.37
77414;BMP280;66486;49.992;19.164;2023-02-01T05:34:02;98364.25;;;2.40
77414;BMP280;66486;49.992;19.164;2023-02-01T05:36:28;98357.16;;;2.47
77414;BMP280;66486;49.992;19.164;2023-02-01T05:38:54;98365.88;;;2.48
77414;BMP280;66486;49.992;19.164;2023-02-01T05:41:20;98359.41;;;2.45
77414;BMP280;66486;49.992;19.164;2023-02-01T05:43:46;98368.16;;;2.49
77414;BMP280;66486;49.992;19.164;2023-02-01T05:46:13;98370.09;;;2.52
77414;BMP280;66486;49.992;19.164;2023-02-01T05:48:40;98364.09;;;2.59
77414;BMP280;66486;49.992;19.164;2023-02-01T05:51:06;98366.28;;;2.53
77414;BMP280;66486;49.992;19.164;2023-02-01T05:53:32;98365.59;;;2.57
77414;BMP280;66486;49.992;19.164;2023-02-01T05:55:58;98367.50;;;2.63
77414;BMP280;66486;49.992;19.164;2023-02-01T05:58:24;98362.66;;;2.72
77414;BMP280;66486;49.992;19.164;2023-02-01T06:00:50;98364.13;;;2.66
77414;BMP280;66486;49.992;19.164;2023-02-01T06:03:16;98365.63;;;2.64
77414;BMP280;66486;49.992;19.164;2023-02-01T06:05:44;98361.44;;;2.59
77414;BMP280;66486;49.992;19.164;2023-02-01T06:08:11;98366.81;;;2.70
77414;BMP280;66486;49.992;19.164;2023-02-01T06:10:37;98357.72;;;2.71
77414;BMP280;66486;49.992;19.164;2023-02-01T06:13:03;98366.38;;;2.64
77414;BMP280;66486;49.992;19.164;2023-02-01T06:15:30;98362.22;;;2.67
77414;BMP280;66486;49.992;19.164;2023-02-01T06:17:56;98358.84;;;2.70
77414;BMP280;66486;49.992;19.164;2023-02-01T06:20:22;98359.25;;;2.75
77414;BMP280;66486;49.992;19.164;2023-02-01T06:22:48;98352.06;;;2.76
77414;BMP280;66486;49.992;19.164;2023-02-01T06:25:14;98347.50;;;2.76
77414;BMP280;66486;49.992;19.164;2023-02-01T06:27:40;98346.78;;;2.79
77414;BMP280;66486;49.992;19.164;2023-02-01T06:30:06;98347.53;;;2.80
77414;BMP280;66486;49.992;19.164;2023-02-01T06:32:33;98361.59;;;2.80
77414;BMP280;66486;49.992;19.164;2023-02-01T06:34:59;98352.16;;;2.86
77414;BMP280;66486;49.992;19.164;2023-02-01T06:37:26;98358.22;;;2.87
77414;BMP280;66486;49.992;19.164;2023-02-01T06:39:54;98349.59;;;3.00
77414;BMP280;66486;49.992;19.164;2023-02-01T06:42:21;98357.94;;;2.99
77414;BMP280;66486;49.992;19.164;2023-02-01T06:44:46;98357.94;;;2.99
77414;BMP280;66486;49.992;19.164;2023-02-01T06:47:13;98355.25;;;2.92
77414;BMP280;66486;49.992;19.164;2023-02-01T06:49:38;98364.06;;;3.06
77414;BMP280;66486;49.992;19.164;2023-02-01T06:52:06;98354.16;;;3.00
77414;BMP280;66486;49.992;19.164;2023-02-01T06:54:31;98356.13;;;3.14
77414;BMP280;66486;49.992;19.164;2023-02-01T06:56:59;98354.53;;;3.02
77414;BMP280;66486;49.992;19.164;2023-02-01T06:59:25;98338.59;;;3.02
77414;BMP280;66486;49.992;19.164;2023-02-01T07:01:51;98338.63;;;3.05
77414;BMP280;66486;49.992;19.164;2023-02-01T07:04:17;98347.34;;;3.06
77414;BMP280;66486;49.992;19.164;2023-02-01T07:06:43;98339.38;;;3.06
77414;BMP280;66486;49.992;19.164;2023-02-01T07:09:09;98336.41;;;3.15
77414;BMP280;66486;49.992;19.164;2023-02-01T07:11:37;98340.19;;;3.14
77414;BMP280;66486;49.992;19.164;2023-02-01T07:14:06;98338.66;;;3.13
77414;BMP280;66486;49.992;19.164;2023-02-01T07:16:32;98340.19;;;3.14
77414;BMP280;66486;49.992;19.164;2023-02-01T07:18:58;98339.88;;;3.19
77414;BMP280;66486;49.992;19.164;2023-02-01T07:21:25;98343.31;;;3.26
77414;BMP280;66486;49.992;19.164;2023-02-01T07:23:54;98338.72;;;3.27
77414;BMP280;66486;49.992;19.164;2023-02-01T07:26:20;98342.19;;;3.31
77414;BMP280;66486;49.992;19.164;2023-02-01T07:28:46;98341.41;;;3.30
77414;BMP280;66486;49.992;19.164;2023-02-01T07:31:15;98341.38;;;3.27
77414;BMP280;66486;49.992;19.164;2023-02-01T07:33:41;98338.03;;;3.33
77414;BMP280;66486;49.992;19.164;2023-02-01T07:36:12;98345.69;;;3.45
77414;BMP280;66486;49.992;19.164;2023-02-01T07:38:38;98338.47;;;3.46
77414;BMP280;66486;49.992;19.164;2023-02-01T07:41:05;98336.19;;;3.41
77414;BMP280;66486;49.992;19.164;2023-02-01T07:43:32;98339.94;;;3.36
77414;BMP280;66486;49.992;19.164;2023-02-01T07:45:59;98339.97;;;3.40
77414;BMP280;66486;49.992;19.164;2023-02-01T07:48:26;98338.06;;;3.40
77414;BMP280;66486;49.992;19.164;2023-02-01T07:51:03;98337.31;;;3.47
77414;BMP280;66486;49.992;19.164;2023-02-01T07:53:31;98338.13;;;3.54
77414;BMP280;66486;49.992;19.164;2023-02-01T07:55:58;98334.28;;;3.48
77414;BMP280;66486;49.992;19.164;2023-02-01T07:58:24;98340.75;;;3.51
77414;BMP280;66486;49.992;19.164;2023-02-01T08:00:51;98342.28;;;3.52
77414;BMP280;66486;49.992;19.164;2023-02-01T08:03:36;98334.34;;;3.55
77414;BMP280;66486;49.992;19.164;2023-02-01T08:06:02;98346.50;;;3.64
77414;BMP280;66486;49.992;19.164;2023-02-01T08:08:29;98345.34;;;3.57
77414;BMP280;66486;49.992;19.164;2023-02-01T08:10:59;98343.81;;;3.53
77414;BMP280;66486;49.992;19.164;2023-02-01T08:13:26;98329.44;;;3.65
77414;BMP280;66486;49.992;19.164;2023-02-01T08:15:57;98329.78;;;3.59
77414;BMP280;66486;49.992;19.164;2023-02-01T08:18:23;98337.41;;;3.65
77414;BMP280;66486;49.992;19.164;2023-02-01T08:20:49;98340.44;;;3.63
77414;BMP280;66486;49.992;19.164;2023-02-01T08:23:16;98340.78;;;3.58
77414;BMP280;66486;49.992;19.164;2023-02-01T08:25:44;98335.09;;;3.59
77414;BMP280;66486;49.992;19.164;2023-02-01T08:28:10;98332.50;;;3.67
77414;BMP280;66486;49.992;19.164;2023-02-01T08:30:37;98333.63;;;3.66
77414;BMP280;66486;49.992;19.164;2023-02-01T08:33:04;98334.75;;;3.65
77414;BMP280;66486;49.992;19.164;2023-02-01T08:35:34;98327.53;;;3.62
77414;BMP280;66486;49.992;19.164;2023-02-01T08:38:00;98332.09;;;3.65
77414;BMP280;66486;49.992;19.164;2023-02-01T08:40:26;98323.72;;;3.59
77414;BMP280;66486;49.992;19.164;2023-02-01T08:42:52;98328.31;;;3.66
77414;BMP280;66486;49.992;19.164;2023-02-01T08:45:24;98330.66;;;3.85
77414;BMP280;66486;49.992;19.164;2023-02-01T08:47:51;98327.59;;;3.83
77414;BMP280;66486;49.992;19.164;2023-02-01T08:50:20;98326.47;;;3.84
77414;BMP280;66486;49.992;19.164;2023-02-01T08:52:46;98320.75;;;3.85
77414;BMP280;66486;49.992;19.164;2023-02-01T08:55:13;98323.81;;;3.91
77414;BMP280;66486;49.992;19.164;2023-02-01T08:57:39;98317.38;;;3.92
77414;BMP280;66486;49.992;19.164;2023-02-01T09:00:08;98324.19;;;3.96
77414;BMP280;66486;49.992;19.164;2023-02-01T09:02:35;98324.19;;;4.03
77414;BMP280;66486;49.992;19.164;2023-02-01T09:05:02;98312.44;;;4.08
77414;BMP280;66486;49.992;19.164;2023-02-01T09:07:29;98335.59;;;4.04
77414;BMP280;66486;49.992;19.164;2023-02-01T09:09:55;98339.03;;;4.08
77414;BMP280;66486;49.992;19.164;2023-02-01T09:12:22;98334.50;;;4.08
77414;BMP280;66486;49.992;19.164;2023-02-01T09:14:49;98340.56;;;4.05
77414;BMP280;66486;49.992;19.164;2023-02-01T09:17:14;98345.53;;;4.07
77414;BMP280;66486;49.992;19.164;2023-02-01T09:19:41;98339.44;;;4.06
77414;BMP280;66486;49.992;19.164;2023-02-01T09:22:07;98340.91;;;4.00
77414;BMP280;66486;49.992;19.164;2023-02-01T09:24:33;98346.66;;;4.09
77414;BMP280;66486;49.992;19.164;2023-02-01T09:26:59;98348.19;;;4.14
77414;BMP280;66486;49.992;19.164;2023-02-01T09:29:25;98347.41;;;4.03
77414;BMP280;66486;49.992;19.164;2023-02-01T09:31:51;98354.22;;;4.00
77414;BMP280;66486;49.992;19.164;2023-02-01T09:34:17;98352.75;;;4.10
77414;BMP280;66486;49.992;19.164;2023-02-01T09:36:43;98343.59;;;4.18
77414;BMP280;66486;49.992;19.164;2023-02-01T09:39:09;98348.16;;;4.03
77414;BMP280;66486;49.992;19.164;2023-02-01T09:41:42;98346.66;;;4.06
77414;BMP280;66486;49.992;19.164;2023-02-01T09:45:03;98354.97;;;3.90
77414;BMP280;66486;49.992;19.164;2023-02-01T09:47:13;98342.78;;;3.82
77414;BMP280;66486;49.992;19.164;2023-02-01T09:49:48;98349.66;;;3.90
77414;BMP280;66486;49.992;19.164;2023-02-01T09:52:19;98357.94;;;3.68
77414;BMP280;66486;49.992;19.164;2023-02-01T09:54:59;98338.94;;;3.73
77414;BMP280;66486;49.992;19.164;2023-02-01T09:57:39;98341.22;;;3.71
77414;BMP280;66486;49.992;19.164;2023-02-01T10:00:15;98337.84;;;3.77
77414;BMP280;66486;49.992;19.164;2023-02-01T10:02:43;98335.19;;;3.84
77414;BMP280;66486;49.992;19.164;2023-02-01T10:05:16;98326.81;;;3.79
77414;BMP280;66486;49.992;19.164;2023-02-01T10:08:04;98328.34;;;3.80
77414;BMP280;66486;49.992;19.164;2023-02-01T10:10:43;98328.00;;;3.85
77414;BMP280;66486;49.992;19.164;2023-02-01T10:13:38;98323.78;;;3.84
77414;BMP280;66486;49.992;19.164;2023-02-01T10:19:18;98321.13;;;3.80
77414;BMP280;66486;49.992;19.164;2023-02-01T10:21:58;98324.91;;;3.83
77414;BMP280;66486;49.992;19.164;2023-02-01T10:27:12;98315.78;;;3.77
77414;BMP280;66486;49.992;19.164;2023-02-01T10:29:41;98311.25;;;3.81
77414;BMP280;66486;49.992;19.164;2023-02-01T10:32:20;98309.75;;;3.87
77414;BMP280;66486;49.992;19.164;2023-02-01T10:34:57;98299.88;;;3.98
77414;BMP280;66486;49.992;19.164;2023-02-01T10:39:53;98298.75;;;4.20
77414;BMP280;66486;49.992;19.164;2023-02-01T10:42:23;98297.25;;;4.26
77414;BMP280;66486;49.992;19.164;2023-02-01T10:44:50;98296.09;;;4.41
77414;BMP280;66486;49.992;19.164;2023-02-01T10:47:16;98288.13;;;4.31
77414;BMP280;66486;49.992;19.164;2023-02-01T10:50:17;98289.25;;;4.26
77414;BMP280;66486;49.992;19.164;2023-02-01T10:52:52;98284.69;;;4.27
77414;BMP280;66486;49.992;19.164;2023-02-01T10:55:50;98275.19;;;4.29
77414;BMP280;66486;49.992;19.164;2023-02-01T10:58:18;98272.53;;;4.33
77414;BMP280;66486;49.992;19.164;2023-02-01T11:00:53;98275.16;;;4.57
77414;BMP280;66486;49.992;19.164;2023-02-01T11:08:54;98256.13;;;4.66
77414;BMP280;66486;49.992;19.164;2023-02-01T11:11:20;98253.88;;;4.68
77414;BMP280;66486;49.992;19.164;2023-02-01T11:16:59;98248.44;;;4.96
77414;BMP280;66486;49.992;19.164;2023-02-01T11:19:27;98248.06;;;5.01
77414;BMP280;66486;49.992;19.164;2023-02-01T11:21:55;98234.66;;;5.15
77414;BMP280;66486;49.992;19.164;2023-02-01T11:24:29;98242.28;;;5.17
77414;BMP280;66486;49.992;19.164;2023-02-01T11:26:59;98245.31;;;5.22
77414;BMP280;66486;49.992;19.164;2023-02-01T11:29:30;98222.88;;;5.16
77414;BMP280;66486;49.992;19.164;2023-02-01T11:31:59;98223.22;;;5.22
77414;BMP280;66486;49.992;19.164;2023-02-01T11:34:33;98219.38;;;5.30
77414;BMP280;66486;49.992;19.164;2023-02-01T11:37:02;98222.03;;;5.30
77414;BMP280;66486;49.992;19.164;2023-02-01T11:39:34;98220.88;;;5.35
77414;BMP280;66486;49.992;19.164;2023-02-01T11:42:16;98222.41;;;5.25
77414;BMP280;66486;49.992;19.164;2023-02-01T11:44:45;98219.81;;;5.11
77414;BMP280;66486;49.992;19.164;2023-02-01T11:47:29;98230.16;;;5.05
77414;BMP280;66486;49.992;19.164;2023-02-01T11:49:59;98228.31;;;4.88
77414;BMP280;66486;49.992;19.164;2023-02-01T11:57:33;98223.38;;;4.83
77414;BMP280;66486;49.992;19.164;2023-02-01T12:03:31;98213.84;;;4.82
77414;BMP280;66486;49.992;19.164;2023-02-01T12:06:17;98212.34;;;4.81
77414;BMP280;66486;49.992;19.164;2023-02-01T12:11:20;98213.81;;;4.93
77414;BMP280;66486;49.992;19.164;2023-02-01T12:16:46;98194.00;;;5.01
77414;BMP280;66486;49.992;19.164;2023-02-01T12:19:27;98193.59;;;4.99
77414;BMP280;66486;49.992;19.164;2023-02-01T12:46:38;98167.16;;;5.33
77414;BMP280;66486;49.992;19.164;2023-02-01T12:49:14;98164.50;;;5.29
77414;BMP280;66486;49.992;19.164;2023-02-01T12:51:44;98164.50;;;5.33
77414;BMP280;66486;49.992;19.164;2023-02-01T12:54:20;98158.41;;;5.32
77414;BMP280;66486;49.992;19.164;2023-02-01T12:56:51;98159.19;;;5.29
77414;BMP280;66486;49.992;19.164;2023-02-01T12:59:29;98155.75;;;5.25
77414;BMP280;66486;49.992;19.164;2023-02-01T13:02:01;98153.16;;;5.18
77414;BMP280;66486;49.992;19.164;2023-02-01T13:04:34;98145.56;;;5.20
77414;BMP280;66486;49.992;19.164;2023-02-01T13:09:47;98147.47;;;5.16
77414;BMP280;66486;49.992;19.164;2023-02-01T13:12:21;98147.03;;;5.21
77414;BMP280;66486;49.992;19.164;2023-02-01T13:14:53;98136.03;;;5.15
77414;BMP280;66486;49.992;19.164;2023-02-01T13:17:23;98148.19;;;5.23
77414;BMP280;66486;49.992;19.164;2023-02-01T13:19:56;98134.50;;;5.18
77414;BMP280;66486;49.992;19.164;2023-02-01T13:22:31;98134.13;;;5.16
77414;BMP280;66486;49.992;19.164;2023-02-01T13:25:04;98129.97;;;5.08
77414;BMP280;66486;49.992;19.164;2023-02-01T13:27:37;98120.06;;;5.12
77414;BMP280;66486;49.992;19.164;2023-02-01T13:32:58;98130.34;;;5.10
77414;BMP280;66486;49.992;19.164;2023-02-01T13:35:48;98128.13;;;5.05
77414;BMP280;66486;49.992;19.164;2023-02-01T13:39:02;98121.59;;;5.13
77414;BMP280;66486;49.992;19.164;2023-02-01T13:41:57;98117.53;;;4.91
77414;BMP280;66486;49.992;19.164;2023-02-01T13:44:45;98119.06;;;4.88
77414;BMP280;66486;49.992;19.164;2023-02-01T13:47:23;98119.06;;;4.85
77414;BMP280;66486;49.992;19.164;2023-02-01T13:49:50;98115.28;;;4.86
77414;BMP280;66486;49.992;19.164;2023-02-01T13:52:25;98119.16;;;4.67
77414;BMP280;66486;49.992;19.164;2023-02-01T13:55:02;98118.81;;;4.61
77414;BMP280;66486;49.992;19.164;2023-02-01T14:00:35;98118.88;;;4.51
77414;BMP280;66486;49.992;19.164;2023-02-01T14:13:39;98119.00;;;3.66
77414;BMP280;66486;49.992;19.164;2023-02-01T14:21:31;98125.03;;;3.56
77414;BMP280;66486;49.992;19.164;2023-02-01T14:26:55;98120.13;;;3.44
77414;BMP280;66486;49.992;19.164;2023-02-01T14:29:29;98118.59;;;3.57
77414;BMP280;66486;49.992;19.164;2023-02-01T14:34:48;98116.69;;;3.47
77414;BMP280;66486;49.992;19.164;2023-02-01T14:44:53;98136.03;;;3.30
77414;BMP280;66486;49.992;19.164;2023-02-01T14:52:20;98141.38;;;3.33
77414;BMP280;66486;49.992;19.164;2023-02-01T14:54:54;98146.28;;;3.35
77414;BMP280;66486;49.992;19.164;2023-02-01T14:57:24;98155.75;;;3.18
77414;BMP280;66486;49.992;19.164;2023-02-01T15:00:00;98159.84;;;2.98
77414;BMP280;66486;49.992;19.164;2023-02-01T15:02:31;98157.19;;;3.01
77414;BMP280;66486;49.992;19.164;2023-02-01T15:04:59;98152.63;;;2.95
77414;BMP280;66486;49.992;19.164;2023-02-01T15:07:26;98159.09;;;3.01
77414;BMP280;66486;49.992;19.164;2023-02-01T15:09:56;98155.31;;;3.02
77414;BMP280;66486;49.992;19.164;2023-02-01T15:12:24;98161.75;;;3.01
77414;BMP280;66486;49.992;19.164;2023-02-01T15:15:15;98169.81;;;3.15
77414;BMP280;66486;49.992;19.164;2023-02-01T15:17:58;98166.75;;;3.13
77414;BMP280;66486;49.992;19.164;2023-02-01T15:20:32;98165.22;;;3.12
77414;BMP280;66486;49.992;19.164;2023-02-01T15:23:04;98164.84;;;3.10
77414;BMP280;66486;49.992;19.164;2023-02-01T15:25:35;98177.31;;;3.02
77414;BMP280;66486;49.992;19.164;2023-02-01T15:28:02;98177.78;;;3.22
77414;BMP280;66486;49.992;19.164;2023-02-01T15:30:31;98175.13;;;3.26
77414;BMP280;66486;49.992;19.164;2023-02-01T15:33:08;98169.41;;;3.24
77414;BMP280;66486;49.992;19.164;2023-02-01T15:41:01;98176.63;;;3.23
77414;BMP280;66486;49.992;19.164;2023-02-01T15:43:30;98175.13;;;3.22
77414;BMP280;66486;49.992;19.164;2023-02-01T15:46:00;98180.81;;;3.24
77414;BMP280;66486;49.992;19.164;2023-02-01T15:48:33;98183.47;;;3.28
77414;BMP280;66486;49.992;19.164;2023-02-01T15:51:01;98192.56;;;3.27
77414;BMP280;66486;49.992;19.164;2023-02-01T15:53:27;98200.94;;;3.29
77414;BMP280;66486;49.992;19.164;2023-02-01T15:56:00;98198.28;;;3.29
77414;BMP280;66486;49.992;19.164;2023-02-01T15:58:27;98212.00;;;3.45
77414;BMP280;66486;49.992;19.164;2023-02-01T16:00:57;98204.41;;;3.43
77414;BMP280;66486;49.992;19.164;2023-02-01T16:05:57;98202.13;;;3.38
77414;BMP280;66486;49.992;19.164;2023-02-01T16:08:26;98202.88;;;3.35
77414;BMP280;66486;49.992;19.164;2023-02-01T16:10:59;98198.31;;;3.36
77414;BMP280;66486;49.992;19.164;2023-02-01T16:13:26;98198.34;;;3.43
77414;BMP280;66486;49.992;19.164;2023-02-01T16:15:52;98205.56;;;3.46
77414;BMP280;66486;49.992;19.164;2023-02-01T16:18:18;98207.41;;;3.31
77414;BMP280;66486;49.992;19.164;2023-02-01T16:20:45;98208.97;;;3.43
77414;BMP280;66486;49.992;19.164;2023-02-01T16:23:12;98209.31;;;3.38
77414;BMP280;66486;49.992;19.164;2023-02-01T16:25:39;98206.66;;;3.34
77414;BMP280;66486;49.992;19.164;2023-02-01T16:28:05;98211.25;;;3.37
77414;BMP280;66486;49.992;19.164;2023-02-01T16:30:32;98207.06;;;3.47
77414;BMP280;66486;49.992;19.164;2023-02-01T16:33:00;98207.44;;;3.52
77414;BMP280;66486;49.992;19.164;2023-02-01T16:35:31;98206.72;;;3.52
77414;BMP280;66486;49.992;19.164;2023-02-01T16:38:07;98218.84;;;3.46
77414;BMP280;66486;49.992;19.164;2023-02-01T16:40:40;98212.00;;;3.45
77414;BMP280;66486;49.992;19.164;2023-02-01T16:43:15;98208.59;;;3.41
77414;BMP280;66486;49.992;19.164;2023-02-01T16:45:43;98212.41;;;3.57